sensor_id;sensor_type;location;lat;lon;timestamp;P1;durP1;ratioP1;P2;durP2;ratioP2
9761;SDS011;4920;49.594;11.022;2024-02-26T00:01:07;6.37;;;3.90;;
9761;SDS011;4920;49.594;11.022;2024-02-26T00:03:36;6.57;;;4.13;;
9761;SDS011;4920;49.594;11.022;2024-02-26T00:06:05;6.37;;;4.47;;
9761;SDS011;4920;49.594;11.022;2024-02-26T00:08:34;4.83;;;3.70;;
9761;SDS011;4920;49.594;11.022;2024-02-26T00:11:05;4.97;;;3.77;;
9761;SDS011;4920;49.594;11.022;2024-02-26T00:13:34;6.50;;;4.10;;
9761;SDS011;4920;49.594;11.022;2024-02-26T00:16:04;5.70;;;4.20;;
9761;SDS011;4920;49.594;11.022;2024-02-26T00:18:33;7.07;;;4.53;;
9761;SDS011;4920;49.594;11.022;2024-02-26T00:21:03;6.57;;;4.40;;
9761;SDS011;4920;49.594;11.022;2024-02-26T00:23:32;6.10;;;4.20;;
9761;SDS011;4920;49.594;11.022;2024-02-26T00:26:01;6.60;;;4.50;;
9761;SDS011;4920;49.594;11.022;2024-02-26T00:28:32;6.27;;;4.23;;
9761;SDS011;4920;49.594;11.022;2024-02-26T00:31:01;7.20;;;4.73;;
9761;SDS011;4920;49.594;11.022;2024-02-26T00:33:30;6.90;;;5.07;;
9761;SDS011;4920;49.594;11.022;2024-02-26T00:35:59;6.03;;;4.30;;
9761;SDS011;4920;49.594;11.022;2024-02-26T00:38:28;6.67;;;5.00;;
9761;SDS011;4920;49.594;11.022;2024-02-26T00:40:57;7.67;;;4.33;;
9761;SDS011;4920;49.594;11.022;2024-02-26T00:43:26;7.20;;;4.53;;
9761;SDS011;4920;49.594;11.022;2024-02-26T00:45:56;8.10;;;4.90;;
9761;SDS011;4920;49.594;11.022;2024-02-26T00:48:25;7.17;;;4.50;;
9761;SDS011;4920;49.594;11.022;2024-02-26T00:50:54;7.03;;;4.37;;
9761;SDS011;4920;49.594;11.022;2024-02-26T00:53:23;6.47;;;4.80;;
9761;SDS011;4920;49.594;11.022;2024-02-26T00:55:53;7.60;;;4.70;;
9761;SDS011;4920;49.594;11.022;2024-02-26T00:58:22;7.63;;;4.37;;
9761;SDS011;4920;49.594;11.022;2024-02-26T01:00:51;6.20;;;4.73;;
9761;SDS011;4920;49.594;11.022;2024-02-26T01:03:21;6.67;;;5.03;;
9761;SDS011;4920;49.594;11.022;2024-02-26T01:05:51;8.10;;;5.00;;
9761;SDS011;4920;49.594;11.022;2024-02-26T01:08:24;7.13;;;4.60;;
9761;SDS011;4920;49.594;11.022;2024-02-26T01:10:53;8.77;;;4.30;;
9761;SDS011;4920;49.594;11.022;2024-02-26T01:13:23;6.03;;;4.20;;
9761;SDS011;4920;49.594;11.022;2024-02-26T01:15:52;6.63;;;4.40;;
9761;SDS011;4920;49.594;11.022;2024-02-26T01:18:22;6.97;;;4.93;;
9761;SDS011;4920;49.594;11.022;2024-02-26T01:20:51;7.23;;;5.00;;
9761;SDS011;4920;49.594;11.022;2024-02-26T01:23:21;7.53;;;4.90;;
9761;SDS011;4920;49.594;11.022;2024-02-26T01:25:50;7.67;;;4.83;;
9761;SDS011;4920;49.594;11.022;2024-02-26T01:28:19;7.30;;;4.90;;
9761;SDS011;4920;49.594;11.022;2024-02-26T01:30:48;7.67;;;5.00;;
9761;SDS011;4920;49.594;11.022;2024-02-26T01:33:17;9.27;;;5.40;;
9761;SDS011;4920;49.594;11.022;2024-02-26T01:35:47;9.83;;;5.23;;
9761;SDS011;4920;49.594;11.022;2024-02-26T01:38:16;9.17;;;5.10;;
9761;SDS011;4920;49.594;11.022;2024-02-26T01:40:45;8.90;;;5.93;;
9761;SDS011;4920;49.594;11.022;2024-02-26T01:43:14;9.90;;;5.73;;
9761;SDS011;4920;49.594;11.022;2024-02-26T01:45:43;8.93;;;5.50;;
9761;SDS011;4920;49.594;11.022;2024-02-26T01:48:12;7.00;;;5.43;;
9761;SDS011;4920;49.594;11.022;2024-02-26T01:50:41;9.13;;;5.57;;
9761;SDS011;4920;49.594;11.022;2024-02-26T01:53:12;8.30;;;5.57;;
9761;SDS011;4920;49.594;11.022;2024-02-26T01:55:41;9.10;;;5.43;;
9761;SDS011;4920;49.594;11.022;2024-02-26T01:58:10;8.37;;;5.47;;
9761;SDS011;4920;49.594;11.022;2024-02-26T02:00:39;8.50;;;5.10;;
9761;SDS011;4920;49.594;11.022;2024-02-26T02:03:09;8.60;;;4.73;;
9761;SDS011;4920;49.594;11.022;2024-02-26T02:05:38;10.03;;;5.60;;
9761;SDS011;4920;49.594;11.022;2024-02-26T02:08:12;8.23;;;5.20;;
9761;SDS011;4920;49.594;11.022;2024-02-26T02:10:42;7.83;;;5.10;;
9761;SDS011;4920;49.594;11.022;2024-02-26T02:13:11;7.60;;;5.30;;
9761;SDS011;4920;49.594;11.022;2024-02-26T02:15:40;7.80;;;5.57;;
9761;SDS011;4920;49.594;11.022;2024-02-26T02:18:09;8.90;;;5.20;;
9761;SDS011;4920;49.594;11.022;2024-02-26T02:20:39;8.80;;;5.47;;
9761;SDS011;4920;49.594;11.022;2024-02-26T02:23:08;10.77;;;5.83;;
9761;SDS011;4920;49.594;11.022;2024-02-26T02:25:37;8.03;;;5.27;;
9761;SDS011;4920;49.594;11.022;2024-02-26T02:28:06;7.67;;;5.50;;
9761;SDS011;4920;49.594;11.022;2024-02-26T02:30:35;7.27;;;5.40;;
9761;SDS011;4920;49.594;11.022;2024-02-26T02:33:05;9.53;;;5.73;;
9761;SDS011;4920;49.594;11.022;2024-02-26T02:35:34;7.93;;;5.17;;
9761;SDS011;4920;49.594;11.022;2024-02-26T02:38:04;9.03;;;5.90;;
9761;SDS011;4920;49.594;11.022;2024-02-26T02:40:34;8.37;;;5.83;;
9761;SDS011;4920;49.594;11.022;2024-02-26T02:43:03;8.93;;;5.60;;
9761;SDS011;4920;49.594;11.022;2024-02-26T02:45:32;8.97;;;5.77;;
9761;SDS011;4920;49.594;11.022;2024-02-26T02:48:01;7.30;;;5.27;;
9761;SDS011;4920;49.594;11.022;2024-02-26T02:50:30;6.23;;;4.97;;
9761;SDS011;4920;49.594;11.022;2024-02-26T02:53:00;10.73;;;5.93;;
9761;SDS011;4920;49.594;11.022;2024-02-26T02:55:30;8.33;;;5.60;;
9761;SDS011;4920;49.594;11.022;2024-02-26T02:57:59;8.90;;;5.87;;
9761;SDS011;4920;49.594;11.022;2024-02-26T03:00:28;8.97;;;5.40;;
9761;SDS011;4920;49.594;11.022;2024-02-26T03:02:57;7.87;;;5.73;;
9761;SDS011;4920;49.594;11.022;2024-02-26T03:05:26;8.60;;;5.37;;
9761;SDS011;4920;49.594;11.022;2024-02-26T03:07:55;9.07;;;4.90;;
9761;SDS011;4920;49.594;11.022;2024-02-26T03:10:24;8.00;;;5.30;;
9761;SDS011;4920;49.594;11.022;2024-02-26T03:12:55;8.20;;;5.63;;
9761;SDS011;4920;49.594;11.022;2024-02-26T03:15:24;9.50;;;5.63;;
9761;SDS011;4920;49.594;11.022;2024-02-26T03:17:53;8.20;;;5.30;;
9761;SDS011;4920;49.594;11.022;2024-02-26T03:20:22;8.97;;;5.17;;
9761;SDS011;4920;49.594;11.022;2024-02-26T03:22:51;8.70;;;5.43;;
9761;SDS011;4920;49.594;11.022;2024-02-26T03:25:20;8.70;;;5.60;;
9761;SDS011;4920;49.594;11.022;2024-02-26T03:27:49;10.23;;;5.70;;
9761;SDS011;4920;49.594;11.022;2024-02-26T03:30:19;8.20;;;5.07;;
9761;SDS011;4920;49.594;11.022;2024-02-26T03:32:48;8.03;;;5.27;;
9761;SDS011;4920;49.594;11.022;2024-02-26T03:35:17;7.30;;;5.47;;
9761;SDS011;4920;49.594;11.022;2024-02-26T03:37:47;9.13;;;5.00;;
9761;SDS011;4920;49.594;11.022;2024-02-26T03:40:17;8.40;;;5.23;;
9761;SDS011;4920;49.594;11.022;2024-02-26T03:42:46;10.80;;;4.87;;
9761;SDS011;4920;49.594;11.022;2024-02-26T03:45:15;7.00;;;5.07;;
9761;SDS011;4920;49.594;11.022;2024-02-26T03:47:46;7.87;;;4.90;;
9761;SDS011;4920;49.594;11.022;2024-02-26T03:50:15;7.70;;;5.30;;
9761;SDS011;4920;49.594;11.022;2024-02-26T03:52:44;7.73;;;5.17;;
9761;SDS011;4920;49.594;11.022;2024-02-26T03:55:13;7.40;;;5.27;;
9761;SDS011;4920;49.594;11.022;2024-02-26T03:57:42;8.23;;;5.40;;
9761;SDS011;4920;49.594;11.022;2024-02-26T04:00:12;7.20;;;5.13;;
9761;SDS011;4920;49.594;11.022;2024-02-26T04:02:41;7.10;;;5.33;;
9761;SDS011;4920;49.594;11.022;2024-02-26T04:05:12;8.00;;;4.87;;
9761;SDS011;4920;49.594;11.022;2024-02-26T04:07:41;6.50;;;4.57;;
9761;SDS011;4920;49.594;11.022;2024-02-26T04:10:10;7.07;;;5.07;;
9761;SDS011;4920;49.594;11.022;2024-02-26T04:12:40;7.60;;;5.17;;
9761;SDS011;4920;49.594;11.022;2024-02-26T04:15:09;6.73;;;5.30;;
9761;SDS011;4920;49.594;11.022;2024-02-26T04:17:39;7.83;;;5.07;;
9761;SDS011;4920;49.594;11.022;2024-02-26T04:20:13;7.83;;;5.37;;
9761;SDS011;4920;49.594;11.022;2024-02-26T04:22:44;7.57;;;4.87;;
9761;SDS011;4920;49.594;11.022;2024-02-26T04:25:13;6.40;;;5.00;;
9761;SDS011;4920;49.594;11.022;2024-02-26T04:27:42;7.90;;;5.20;;
9761;SDS011;4920;49.594;11.022;2024-02-26T04:30:11;8.47;;;5.50;;
9761;SDS011;4920;49.594;11.022;2024-02-26T04:32:40;6.77;;;4.90;;
9761;SDS011;4920;49.594;11.022;2024-02-26T04:35:09;7.33;;;4.80;;
9761;SDS011;4920;49.594;11.022;2024-02-26T04:37:40;8.60;;;4.97;;
9761;SDS011;4920;49.594;11.022;2024-02-26T04:40:09;8.13;;;5.07;;
9761;SDS011;4920;49.594;11.022;2024-02-26T04:42:38;7.87;;;4.87;;
9761;SDS011;4920;49.594;11.022;2024-02-26T04:45:07;7.33;;;4.87;;
9761;SDS011;4920;49.594;11.022;2024-02-26T04:47:37;8.20;;;5.27;;
9761;SDS011;4920;49.594;11.022;2024-02-26T04:50:06;8.13;;;5.10;;
9761;SDS011;4920;49.594;11.022;2024-02-26T04:52:37;6.47;;;4.53;;
9761;SDS011;4920;49.594;11.022;2024-02-26T04:55:07;8.93;;;5.10;;
9761;SDS011;4920;49.594;11.022;2024-02-26T04:57:36;7.60;;;5.20;;
9761;SDS011;4920;49.594;11.022;2024-02-26T05:00:05;9.43;;;5.57;;
9761;SDS011;4920;49.594;11.022;2024-02-26T05:02:35;11.40;;;4.87;;
9761;SDS011;4920;49.594;11.022;2024-02-26T05:05:05;7.03;;;4.77;;
9761;SDS011;4920;49.594;11.022;2024-02-26T05:07:40;7.63;;;4.53;;
9761;SDS011;4920;49.594;11.022;2024-02-26T05:10:10;11.77;;;4.90;;
9761;SDS011;4920;49.594;11.022;2024-02-26T05:12:39;6.60;;;4.47;;
9761;SDS011;4920;49.594;11.022;2024-02-26T05:15:09;6.87;;;4.03;;
9761;SDS011;4920;49.594;11.022;2024-02-26T05:17:42;8.03;;;4.37;;
9761;SDS011;4920;49.594;11.022;2024-02-26T05:20:12;6.67;;;4.20;;
9761;SDS011;4920;49.594;11.022;2024-02-26T05:22:43;6.10;;;4.03;;
9761;SDS011;4920;49.594;11.022;2024-02-26T05:25:12;5.30;;;4.07;;
9761;SDS011;4920;49.594;11.022;2024-02-26T05:27:43;6.43;;;4.30;;
9761;SDS011;4920;49.594;11.022;2024-02-26T05:30:12;7.93;;;4.43;;
9761;SDS011;4920;49.594;11.022;2024-02-26T05:32:42;6.23;;;3.73;;
9761;SDS011;4920;49.594;11.022;2024-02-26T05:35:11;6.33;;;3.70;;
9761;SDS011;4920;49.594;11.022;2024-02-26T05:37:40;8.53;;;3.90;;
9761;SDS011;4920;49.594;11.022;2024-02-26T05:40:11;6.53;;;3.73;;
9761;SDS011;4920;49.594;11.022;2024-02-26T05:42:40;5.50;;;3.90;;
9761;SDS011;4920;49.594;11.022;2024-02-26T05:45:11;6.70;;;3.67;;
9761;SDS011;4920;49.594;11.022;2024-02-26T05:47:40;5.10;;;3.57;;
9761;SDS011;4920;49.594;11.022;2024-02-26T05:50:10;7.80;;;3.90;;
9761;SDS011;4920;49.594;11.022;2024-02-26T05:52:42;7.27;;;3.97;;
9761;SDS011;4920;49.594;11.022;2024-02-26T05:55:12;7.07;;;4.03;;
9761;SDS011;4920;49.594;11.022;2024-02-26T05:57:41;7.17;;;4.20;;
9761;SDS011;4920;49.594;11.022;2024-02-26T06:00:11;6.33;;;4.40;;
9761;SDS011;4920;49.594;11.022;2024-02-26T06:02:41;5.60;;;3.90;;
9761;SDS011;4920;49.594;11.022;2024-02-26T06:05:11;6.10;;;3.80;;
9761;SDS011;4920;49.594;11.022;2024-02-26T06:07:40;5.87;;;3.93;;
9761;SDS011;4920;49.594;11.022;2024-02-26T06:10:09;6.47;;;4.10;;
9761;SDS011;4920;49.594;11.022;2024-02-26T06:12:42;6.57;;;4.10;;
9761;SDS011;4920;49.594;11.022;2024-02-26T06:15:11;5.07;;;3.33;;
9761;SDS011;4920;49.594;11.022;2024-02-26T06:17:40;6.13;;;3.90;;
9761;SDS011;4920;49.594;11.022;2024-02-26T06:20:10;6.67;;;3.87;;
9761;SDS011;4920;49.594;11.022;2024-02-26T06:22:40;6.23;;;3.83;;
9761;SDS011;4920;49.594;11.022;2024-02-26T06:25:09;6.97;;;4.17;;
9761;SDS011;4920;49.594;11.022;2024-02-26T06:27:38;8.83;;;4.40;;
9761;SDS011;4920;49.594;11.022;2024-02-26T06:30:09;6.90;;;4.47;;
9761;SDS011;4920;49.594;11.022;2024-02-26T06:32:39;7.30;;;4.20;;
9761;SDS011;4920;49.594;11.022;2024-02-26T06:35:08;6.63;;;3.47;;
9761;SDS011;4920;49.594;11.022;2024-02-26T06:37:38;7.47;;;4.13;;
9761;SDS011;4920;49.594;11.022;2024-02-26T06:40:08;9.97;;;3.93;;
9761;SDS011;4920;49.594;11.022;2024-02-26T06:42:37;6.37;;;4.13;;
9761;SDS011;4920;49.594;11.022;2024-02-26T06:45:06;7.13;;;3.73;;
9761;SDS011;4920;49.594;11.022;2024-02-26T06:47:37;6.20;;;4.00;;
9761;SDS011;4920;49.594;11.022;2024-02-26T06:50:07;9.67;;;4.23;;
9761;SDS011;4920;49.594;11.022;2024-02-26T06:52:37;9.97;;;5.00;;
9761;SDS011;4920;49.594;11.022;2024-02-26T06:55:06;5.30;;;3.70;;
9761;SDS011;4920;49.594;11.022;2024-02-26T06:57:36;6.80;;;3.70;;
9761;SDS011;4920;49.594;11.022;2024-02-26T07:00:05;6.77;;;4.10;;
9761;SDS011;4920;49.594;11.022;2024-02-26T07:02:37;8.00;;;4.13;;
9761;SDS011;4920;49.594;11.022;2024-02-26T07:05:06;8.13;;;4.10;;
9761;SDS011;4920;49.594;11.022;2024-02-26T07:07:35;5.47;;;4.00;;
9761;SDS011;4920;49.594;11.022;2024-02-26T07:10:05;7.33;;;3.87;;
9761;SDS011;4920;49.594;11.022;2024-02-26T07:12:34;7.53;;;3.70;;
9761;SDS011;4920;49.594;11.022;2024-02-26T07:15:04;7.97;;;4.00;;
9761;SDS011;4920;49.594;11.022;2024-02-26T07:17:35;6.33;;;4.07;;
9761;SDS011;4920;49.594;11.022;2024-02-26T07:20:09;4.63;;;3.63;;
9761;SDS011;4920;49.594;11.022;2024-02-26T07:22:38;5.77;;;3.47;;
9761;SDS011;4920;49.594;11.022;2024-02-26T07:25:09;6.23;;;4.00;;
9761;SDS011;4920;49.594;11.022;2024-02-26T07:27:40;7.83;;;4.17;;
9761;SDS011;4920;49.594;11.022;2024-02-26T07:30:09;6.50;;;3.67;;
9761;SDS011;4920;49.594;11.022;2024-02-26T07:32:41;9.90;;;3.83;;
9761;SDS011;4920;49.594;11.022;2024-02-26T07:35:12;7.50;;;3.80;;
9761;SDS011;4920;49.594;11.022;2024-02-26T07:37:41;5.27;;;3.80;;
9761;SDS011;4920;49.594;11.022;2024-02-26T07:40:10;5.13;;;4.03;;
9761;SDS011;4920;49.594;11.022;2024-02-26T07:42:40;6.73;;;3.90;;
9761;SDS011;4920;49.594;11.022;2024-02-26T07:45:09;4.70;;;3.93;;
9761;SDS011;4920;49.594;11.022;2024-02-26T07:47:38;7.97;;;4.50;;
9761;SDS011;4920;49.594;11.022;2024-02-26T07:50:10;8.70;;;4.10;;
9761;SDS011;4920;49.594;11.022;2024-02-26T07:52:39;7.97;;;3.77;;
9761;SDS011;4920;49.594;11.022;2024-02-26T07:55:08;5.33;;;3.47;;
9761;SDS011;4920;49.594;11.022;2024-02-26T07:57:40;5.30;;;3.73;;
9761;SDS011;4920;49.594;11.022;2024-02-26T08:00:10;5.77;;;3.60;;
9761;SDS011;4920;49.594;11.022;2024-02-26T08:02:44;6.90;;;3.90;;
9761;SDS011;4920;49.594;11.022;2024-02-26T08:05:16;4.47;;;3.50;;
9761;SDS011;4920;49.594;11.022;2024-02-26T08:07:45;6.43;;;4.07;;
9761;SDS011;4920;49.594;11.022;2024-02-26T08:10:15;7.27;;;3.90;;
9761;SDS011;4920;49.594;11.022;2024-02-26T08:12:44;5.63;;;3.63;;
9761;SDS011;4920;49.594;11.022;2024-02-26T08:15:13;5.30;;;3.70;;
9761;SDS011;4920;49.594;11.022;2024-02-26T08:17:42;6.67;;;4.20;;
9761;SDS011;4920;49.594;11.022;2024-02-26T08:20:12;6.70;;;4.27;;
9761;SDS011;4920;49.594;11.022;2024-02-26T08:22:42;7.03;;;4.30;;
9761;SDS011;4920;49.594;11.022;2024-02-26T08:25:12;5.30;;;3.90;;
9761;SDS011;4920;49.594;11.022;2024-02-26T08:27:42;5.70;;;4.10;;
9761;SDS011;4920;49.594;11.022;2024-02-26T08:30:12;8.20;;;4.10;;
9761;SDS011;4920;49.594;11.022;2024-02-26T08:32:43;7.97;;;3.90;;
9761;SDS011;4920;49.594;11.022;2024-02-26T08:35:18;5.57;;;3.77;;
9761;SDS011;4920;49.594;11.022;2024-02-26T08:37:48;6.53;;;4.07;;
9761;SDS011;4920;49.594;11.022;2024-02-26T08:40:17;4.73;;;3.57;;
9761;SDS011;4920;49.594;11.022;2024-02-26T08:42:47;5.27;;;3.67;;
9761;SDS011;4920;49.594;11.022;2024-02-26T08:45:16;6.77;;;3.60;;
9761;SDS011;4920;49.594;11.022;2024-02-26T08:47:45;8.00;;;4.30;;
9761;SDS011;4920;49.594;11.022;2024-02-26T08:50:14;6.77;;;3.93;;
9761;SDS011;4920;49.594;11.022;2024-02-26T08:52:43;5.13;;;3.70;;
9761;SDS011;4920;49.594;11.022;2024-02-26T08:55:17;5.63;;;3.70;;
9761;SDS011;4920;49.594;11.022;2024-02-26T08:57:46;6.60;;;3.67;;
9761;SDS011;4920;49.594;11.022;2024-02-26T09:00:16;5.00;;;3.97;;
9761;SDS011;4920;49.594;11.022;2024-02-26T09:02:47;7.37;;;4.40;;
9761;SDS011;4920;49.594;11.022;2024-02-26T09:05:16;7.87;;;4.30;;
9761;SDS011;4920;49.594;11.022;2024-02-26T09:07:45;6.07;;;3.50;;
9761;SDS011;4920;49.594;11.022;2024-02-26T09:10:15;5.73;;;3.60;;
9761;SDS011;4920;49.594;11.022;2024-02-26T09:12:45;6.20;;;3.60;;
9761;SDS011;4920;49.594;11.022;2024-02-26T09:15:14;5.53;;;3.73;;
9761;SDS011;4920;49.594;11.022;2024-02-26T09:17:43;5.80;;;3.83;;
9761;SDS011;4920;49.594;11.022;2024-02-26T09:20:13;6.53;;;4.03;;
9761;SDS011;4920;49.594;11.022;2024-02-26T09:22:42;6.17;;;3.70;;
9761;SDS011;4920;49.594;11.022;2024-02-26T09:25:11;5.53;;;3.87;;
9761;SDS011;4920;49.594;11.022;2024-02-26T09:27:41;4.53;;;3.70;;
9761;SDS011;4920;49.594;11.022;2024-02-26T09:30:11;8.00;;;4.33;;
9761;SDS011;4920;49.594;11.022;2024-02-26T09:32:41;6.17;;;3.60;;
9761;SDS011;4920;49.594;11.022;2024-02-26T09:35:14;6.63;;;4.00;;
9761;SDS011;4920;49.594;11.022;2024-02-26T09:37:43;5.83;;;3.93;;
9761;SDS011;4920;49.594;11.022;2024-02-26T09:40:12;7.40;;;4.30;;
9761;SDS011;4920;49.594;11.022;2024-02-26T09:42:43;9.90;;;4.37;;
9761;SDS011;4920;49.594;11.022;2024-02-26T09:45:17;6.13;;;4.37;;
9761;SDS011;4920;49.594;11.022;2024-02-26T09:47:47;6.27;;;3.90;;
9761;SDS011;4920;49.594;11.022;2024-02-26T09:50:17;4.30;;;3.90;;
9761;SDS011;4920;49.594;11.022;2024-02-26T09:52:50;5.20;;;4.03;;
9761;SDS011;4920;49.594;11.022;2024-02-26T09:55:20;6.13;;;4.47;;
9761;SDS011;4920;49.594;11.022;2024-02-26T09:57:51;7.17;;;3.93;;
9761;SDS011;4920;49.594;11.022;2024-02-26T10:00:21;4.87;;;4.13;;
9761;SDS011;4920;49.594;11.022;2024-02-26T10:02:51;6.57;;;4.33;;
9761;SDS011;4920;49.594;11.022;2024-02-26T10:05:20;7.37;;;4.17;;
9761;SDS011;4920;49.594;11.022;2024-02-26T10:07:49;5.47;;;4.13;;
9761;SDS011;4920;49.594;11.022;2024-02-26T10:10:19;6.87;;;4.10;;
9761;SDS011;4920;49.594;11.022;2024-02-26T10:12:50;4.97;;;3.80;;
9761;SDS011;4920;49.594;11.022;2024-02-26T10:15:19;6.43;;;4.33;;
9761;SDS011;4920;49.594;11.022;2024-02-26T10:17:48;7.07;;;4.13;;
9761;SDS011;4920;49.594;11.022;2024-02-26T10:20:18;5.40;;;4.17;;
9761;SDS011;4920;49.594;11.022;2024-02-26T10:22:50;7.70;;;4.50;;
9761;SDS011;4920;49.594;11.022;2024-02-26T10:25:19;5.70;;;4.17;;
9761;SDS011;4920;49.594;11.022;2024-02-26T10:27:48;5.50;;;3.93;;
9761;SDS011;4920;49.594;11.022;2024-02-26T10:30:20;5.90;;;3.80;;
9761;SDS011;4920;49.594;11.022;2024-02-26T10:32:50;5.00;;;4.00;;
9761;SDS011;4920;49.594;11.022;2024-02-26T10:35:19;5.00;;;3.97;;
9761;SDS011;4920;49.594;11.022;2024-02-26T10:37:50;5.50;;;4.27;;
9761;SDS011;4920;49.594;11.022;2024-02-26T10:40:19;5.43;;;3.80;;
9761;SDS011;4920;49.594;11.022;2024-02-26T10:42:49;23.67;;;6.10;;
9761;SDS011;4920;49.594;11.022;2024-02-26T10:45:19;6.63;;;3.97;;
9761;SDS011;4920;49.594;11.022;2024-02-26T10:47:49;4.78;;;3.60;;
9761;SDS011;4920;49.594;11.022;2024-02-26T10:50:19;4.05;;;3.25;;
9761;SDS011;4920;49.594;11.022;2024-02-26T10:52:48;6.75;;;3.60;;
9761;SDS011;4920;49.594;11.022;2024-02-26T10:55:17;4.95;;;3.50;;
9761;SDS011;4920;49.594;11.022;2024-02-26T10:57:48;4.45;;;3.70;;
9761;SDS011;4920;49.594;11.022;2024-02-26T11:00:21;5.10;;;3.72;;
9761;SDS011;4920;49.594;11.022;2024-02-26T11:02:51;6.55;;;3.63;;
9761;SDS011;4920;49.594;11.022;2024-02-26T11:05:21;7.32;;;3.47;;
9761;SDS011;4920;49.594;11.022;2024-02-26T11:07:51;4.25;;;3.40;;
9761;SDS011;4920;49.594;11.022;2024-02-26T11:10:21;4.38;;;3.30;;
9761;SDS011;4920;49.594;11.022;2024-02-26T11:12:54;4.93;;;3.92;;
9761;SDS011;4920;49.594;11.022;2024-02-26T11:15:25;3.83;;;3.00;;
9761;SDS011;4920;49.594;11.022;2024-02-26T11:17:54;4.80;;;3.50;;
9761;SDS011;4920;49.594;11.022;2024-02-26T11:20:25;4.40;;;3.58;;
9761;SDS011;4920;49.594;11.022;2024-02-26T11:22:57;6.07;;;3.70;;
9761;SDS011;4920;49.594;11.022;2024-02-26T11:25:26;5.30;;;3.60;;
9761;SDS011;4920;49.594;11.022;2024-02-26T11:28:00;4.15;;;3.60;;
9761;SDS011;4920;49.594;11.022;2024-02-26T11:30:32;3.60;;;3.22;;
9761;SDS011;4920;49.594;11.022;2024-02-26T11:33:09;4.78;;;3.47;;
9761;SDS011;4920;49.594;11.022;2024-02-26T11:35:39;4.80;;;3.50;;
9761;SDS011;4920;49.594;11.022;2024-02-26T11:38:09;3.45;;;2.92;;
9761;SDS011;4920;49.594;11.022;2024-02-26T11:40:46;3.78;;;3.30;;
9761;SDS011;4920;49.594;11.022;2024-02-26T11:43:20;4.60;;;3.40;;
9761;SDS011;4920;49.594;11.022;2024-02-26T11:45:52;4.35;;;3.17;;
9761;SDS011;4920;49.594;11.022;2024-02-26T11:48:23;4.57;;;3.17;;
9761;SDS011;4920;49.594;11.022;2024-02-26T11:50:54;4.00;;;2.95;;
9761;SDS011;4920;49.594;11.022;2024-02-26T11:53:24;3.65;;;3.13;;
9761;SDS011;4920;49.594;11.022;2024-02-26T11:56:13;4.00;;;3.17;;
9761;SDS011;4920;49.594;11.022;2024-02-26T11:59:01;3.38;;;3.08;;
9761;SDS011;4920;49.594;11.022;2024-02-26T12:01:40;3.10;;;2.72;;
9761;SDS011;4920;49.594;11.022;2024-02-26T12:04:15;4.28;;;2.90;;
9761;SDS011;4920;49.594;11.022;2024-02-26T12:06:47;6.45;;;3.20;;
9761;SDS011;4920;49.594;11.022;2024-02-26T12:09:32;3.28;;;2.90;;
9761;SDS011;4920;49.594;11.022;2024-02-26T12:12:04;3.88;;;3.13;;
9761;SDS011;4920;49.594;11.022;2024-02-26T12:14:36;4.45;;;3.40;;
9761;SDS011;4920;49.594;11.022;2024-02-26T12:17:06;4.38;;;3.28;;
9761;SDS011;4920;49.594;11.022;2024-02-26T12:19:36;3.70;;;3.20;;
9761;SDS011;4920;49.594;11.022;2024-02-26T12:22:10;4.68;;;3.15;;
9761;SDS011;4920;49.594;11.022;2024-02-26T12:24:41;4.45;;;3.15;;
9761;SDS011;4920;49.594;11.022;2024-02-26T12:27:10;3.95;;;3.28;;
9761;SDS011;4920;49.594;11.022;2024-02-26T12:29:41;9.27;;;3.40;;
9761;SDS011;4920;49.594;11.022;2024-02-26T12:32:11;4.22;;;3.25;;
9761;SDS011;4920;49.594;11.022;2024-02-26T12:34:41;4.22;;;3.25;;
9761;SDS011;4920;49.594;11.022;2024-02-26T12:37:11;4.75;;;2.90;;
9761;SDS011;4920;49.594;11.022;2024-02-26T12:39:41;4.47;;;2.95;;
9761;SDS011;4920;49.594;11.022;2024-02-26T12:42:10;4.22;;;2.92;;
9761;SDS011;4920;49.594;11.022;2024-02-26T12:44:39;4.40;;;3.28;;
9761;SDS011;4920;49.594;11.022;2024-02-26T12:47:09;6.13;;;2.90;;
9761;SDS011;4920;49.594;11.022;2024-02-26T12:49:43;3.97;;;3.13;;
9761;SDS011;4920;49.594;11.022;2024-02-26T12:52:16;5.00;;;3.13;;
9761;SDS011;4920;49.594;11.022;2024-02-26T12:54:45;3.50;;;3.20;;
9761;SDS011;4920;49.594;11.022;2024-02-26T12:57:14;5.30;;;3.03;;
9761;SDS011;4920;49.594;11.022;2024-02-26T12:59:43;3.35;;;2.80;;
9761;SDS011;4920;49.594;11.022;2024-02-26T13:02:14;3.05;;;2.75;;
9761;SDS011;4920;49.594;11.022;2024-02-26T13:04:43;4.40;;;3.10;;
9761;SDS011;4920;49.594;11.022;2024-02-26T13:07:12;4.50;;;3.03;;
9761;SDS011;4920;49.594;11.022;2024-02-26T13:09:42;5.15;;;3.00;;
9761;SDS011;4920;49.594;11.022;2024-02-26T13:12:11;4.53;;;2.80;;
9761;SDS011;4920;49.594;11.022;2024-02-26T13:14:41;4.07;;;2.90;;
9761;SDS011;4920;49.594;11.022;2024-02-26T13:17:10;3.72;;;2.80;;
9761;SDS011;4920;49.594;11.022;2024-02-26T13:19:50;2.80;;;2.45;;
9761;SDS011;4920;49.594;11.022;2024-02-26T13:22:20;3.22;;;2.80;;
9761;SDS011;4920;49.594;11.022;2024-02-26T13:24:53;3.88;;;2.83;;
9761;SDS011;4920;49.594;11.022;2024-02-26T13:27:22;2.95;;;2.40;;
9761;SDS011;4920;49.594;11.022;2024-02-26T13:30:03;4.10;;;2.20;;
9761;SDS011;4920;49.594;11.022;2024-02-26T13:32:36;3.00;;;2.20;;
9761;SDS011;4920;49.594;11.022;2024-02-26T13:35:09;3.28;;;2.25;;
9761;SDS011;4920;49.594;11.022;2024-02-26T13:37:39;2.50;;;2.17;;
9761;SDS011;4920;49.594;11.022;2024-02-26T13:40:09;3.25;;;2.20;;
9761;SDS011;4920;49.594;11.022;2024-02-26T13:42:38;2.75;;;2.47;;
9761;SDS011;4920;49.594;11.022;2024-02-26T13:45:08;3.78;;;2.00;;
9761;SDS011;4920;49.594;11.022;2024-02-26T13:47:38;3.17;;;2.40;;
9761;SDS011;4920;49.594;11.022;2024-02-26T13:50:09;2.50;;;2.30;;
9761;SDS011;4920;49.594;11.022;2024-02-26T13:52:38;2.78;;;2.15;;
9761;SDS011;4920;49.594;11.022;2024-02-26T13:55:08;2.75;;;2.10;;
9761;SDS011;4920;49.594;11.022;2024-02-26T13:57:37;3.03;;;1.70;;
9761;SDS011;4920;49.594;11.022;2024-02-26T14:00:06;2.13;;;1.83;;
9761;SDS011;4920;49.594;11.022;2024-02-26T14:02:39;2.10;;;1.80;;
9761;SDS011;4920;49.594;11.022;2024-02-26T14:05:10;2.85;;;1.80;;
9761;SDS011;4920;49.594;11.022;2024-02-26T14:07:39;1.83;;;1.65;;
9761;SDS011;4920;49.594;11.022;2024-02-26T14:10:08;2.90;;;1.98;;
9761;SDS011;4920;49.594;11.022;2024-02-26T14:12:40;2.05;;;1.80;;
9761;SDS011;4920;49.594;11.022;2024-02-26T14:15:09;3.60;;;1.95;;
9761;SDS011;4920;49.594;11.022;2024-02-26T14:17:39;2.60;;;2.30;;
9761;SDS011;4920;49.594;11.022;2024-02-26T14:20:10;3.03;;;2.05;;
9761;SDS011;4920;49.594;11.022;2024-02-26T14:22:39;3.00;;;2.20;;
9761;SDS011;4920;49.594;11.022;2024-02-26T14:25:08;2.60;;;2.08;;
9761;SDS011;4920;49.594;11.022;2024-02-26T14:27:37;5.07;;;2.20;;
9761;SDS011;4920;49.594;11.022;2024-02-26T14:30:07;8.32;;;2.10;;
9761;SDS011;4920;49.594;11.022;2024-02-26T14:32:37;3.80;;;2.08;;
9761;SDS011;4920;49.594;11.022;2024-02-26T14:35:06;2.88;;;2.20;;
9761;SDS011;4920;49.594;11.022;2024-02-26T14:37:43;2.33;;;2.10;;
9761;SDS011;4920;49.594;11.022;2024-02-26T14:40:14;2.40;;;2.20;;
9761;SDS011;4920;49.594;11.022;2024-02-26T14:42:44;3.15;;;2.05;;
9761;SDS011;4920;49.594;11.022;2024-02-26T14:45:13;5.95;;;2.45;;
9761;SDS011;4920;49.594;11.022;2024-02-26T14:47:43;5.03;;;2.17;;
9761;SDS011;4920;49.594;11.022;2024-02-26T14:50:12;3.42;;;2.20;;
9761;SDS011;4920;49.594;11.022;2024-02-26T14:52:41;3.67;;;2.30;;
9761;SDS011;4920;49.594;11.022;2024-02-26T14:55:12;4.03;;;2.50;;
9761;SDS011;4920;49.594;11.022;2024-02-26T14:57:41;3.78;;;2.58;;
9761;SDS011;4920;49.594;11.022;2024-02-26T15:00:10;3.45;;;2.50;;
9761;SDS011;4920;49.594;11.022;2024-02-26T15:02:40;4.57;;;2.65;;
9761;SDS011;4920;49.594;11.022;2024-02-26T15:05:09;3.63;;;2.50;;
9761;SDS011;4920;49.594;11.022;2024-02-26T15:07:38;5.88;;;3.22;;
9761;SDS011;4920;49.594;11.022;2024-02-26T15:10:10;3.83;;;2.53;;
9761;SDS011;4920;49.594;11.022;2024-02-26T15:12:39;3.63;;;2.70;;
9761;SDS011;4920;49.594;11.022;2024-02-26T15:15:08;4.90;;;2.72;;
9761;SDS011;4920;49.594;11.022;2024-02-26T15:17:37;2.63;;;2.17;;